createdAt,value
2018-12-01T00:01:02.416Z,86.05
2018-12-01T00:03:35.256Z,85.84
2018-12-01T00:06:06.056Z,86.32
2018-12-01T00:08:36.375Z,85.91
2018-12-01T00:11:06.690Z,86.20
2018-12-01T00:13:36.980Z,85.98
2018-12-01T00:16:07.881Z,85.36
2018-12-01T00:18:38.127Z,85.39
2018-12-01T00:21:08.316Z,85.38
2018-12-01T00:23:39.060Z,85.26
2018-12-01T00:26:10.367Z,85.03
2018-12-01T00:28:41.078Z,84.96
2018-12-01T00:31:12.431Z,85.11
2018-12-01T00:33:43.694Z,85.70
2018-12-01T00:36:15.934Z,86.20
2018-12-01T00:38:47.461Z,86.07
2018-12-01T00:41:18.727Z,86.57
2018-12-01T00:43:48.958Z,86.63
2018-12-01T00:46:19.657Z,86.80
2018-12-01T00:48:50.214Z,86.79
2018-12-01T00:51:20.978Z,86.56
2018-12-01T00:53:51.698Z,86.47
2018-12-01T00:56:23.080Z,86.84
2018-12-01T00:58:53.154Z,87.04
2018-12-01T01:01:24.353Z,87.44
2018-12-01T01:03:54.571Z,87.52
2018-12-01T01:06:24.635Z,87.12
2018-12-01T01:08:55.025Z,87.17
2018-12-01T01:11:25.863Z,87.37
2018-12-01T01:13:56.595Z,87.07
2018-12-01T01:16:27.346Z,87.56
2018-12-01T01:18:57.951Z,87.71
2018-12-01T01:21:27.982Z,88.18
2018-12-01T01:23:59.251Z,87.70
2018-12-01T01:26:30.570Z,87.54
2018-12-01T01:29:02.517Z,87.42
2018-12-01T01:31:32.795Z,87.19
2018-12-01T01:34:02.791Z,87.50
2018-12-01T01:36:32.677Z,87.51
2018-12-01T01:39:03.864Z,87.76
2018-12-01T01:41:34.498Z,87.59
2018-12-01T01:44:04.684Z,87.69
2018-12-01T01:46:35.917Z,87.26
2018-12-01T01:49:06.986Z,87.00
2018-12-01T01:51:37.058Z,86.80
2018-12-01T01:54:08.288Z,86.93
2018-12-01T01:56:38.377Z,87.12
2018-12-01T01:59:08.658Z,86.54
2018-12-01T02:01:40.112Z,86.98
2018-12-01T02:04:10.220Z,87.27
2018-12-01T02:06:41.997Z,87.54
2018-12-01T02:09:12.176Z,87.65
2018-12-01T02:11:42.223Z,87.58
2018-12-01T02:14:12.854Z,87.34
2018-12-01T02:16:43.934Z,87.05
2018-12-01T02:19:15.378Z,87.55
2018-12-01T02:21:45.425Z,87.37
2018-12-01T02:24:15.498Z,87.63
2018-12-01T02:26:45.649Z,87.56
2018-12-01T02:29:17.295Z,87.44
2018-12-01T02:31:48.241Z,87.56
2018-12-01T02:34:18.357Z,88.19
2018-12-01T02:36:49.114Z,87.88
2018-12-01T02:39:19.730Z,87.76
2018-12-01T02:41:49.777Z,88.16
2018-12-01T02:44:36.774Z,88.00
2018-12-01T02:47:11.006Z,88.07
2018-12-01T02:49:41.708Z,88.34
2018-12-01T02:52:11.899Z,88.42
2018-12-01T02:54:43.080Z,88.16
2018-12-01T02:57:13.832Z,88.40
2018-12-01T02:59:44.454Z,88.88
2018-12-01T03:02:15.390Z,88.68
2018-12-01T03:04:46.243Z,88.92
2018-12-01T03:07:17.486Z,88.88
2018-12-01T03:09:47.631Z,89.13
2018-12-01T03:12:18.260Z,88.91
2018-12-01T03:14:48.357Z,88.99
2018-12-01T03:17:19.515Z,89.40
2018-12-01T03:19:51.278Z,89.59
2018-12-01T03:22:21.274Z,89.66
2018-12-01T03:24:52.661Z,89.76
2018-12-01T03:27:24.521Z,90.27
2018-12-01T03:29:55.246Z,90.35
2018-12-01T03:32:27.547Z,90.50
2018-12-01T03:34:57.647Z,90.40
2018-12-01T03:37:27.690Z,90.48
2018-12-01T03:39:58.506Z,90.54
2018-12-01T03:42:28.770Z,90.55
2018-12-01T03:44:59.474Z,90.37
2018-12-01T03:47:32.416Z,89.71
2018-12-01T03:50:03.117Z,89.20
2018-12-01T03:52:33.241Z,88.96
2018-12-01T03:55:04.594Z,89.04
2018-12-01T03:57:37.684Z,88.54
2018-12-01T04:00:08.831Z,88.45
2018-12-01T04:02:41.615Z,88.04
2018-12-01T04:05:12.941Z,88.23
2018-12-01T04:07:43.033Z,88.45
2018-12-01T04:10:14.445Z,88.30
2018-12-01T04:12:44.855Z,88.47
2018-12-01T04:15:15.133Z,88.74
2018-12-01T04:17:45.312Z,88.87
2018-12-01T04:20:16.774Z,88.46
2018-12-01T04:22:47.369Z,88.75
2018-12-01T04:25:17.578Z,88.67
2018-12-01T04:27:49.477Z,88.46
2018-12-01T04:30:23.649Z,88.37
2018-12-01T04:32:53.860Z,88.05
2018-12-01T04:35:25.577Z,88.03
2018-12-01T04:37:57.253Z,87.99
2018-12-01T04:40:27.935Z,87.87
2018-12-01T04:42:58.105Z,87.82
2018-12-01T04:45:28.206Z,87.80
2018-12-01T04:47:58.361Z,87.49
2018-12-01T04:50:29.724Z,87.02
2018-12-01T04:53:00.464Z,86.96
2018-12-01T04:55:30.575Z,87.01
2018-12-01T04:58:00.641Z,87.12
2018-12-01T05:00:30.790Z,86.64
2018-12-01T05:03:00.948Z,86.87
2018-12-01T05:05:33.101Z,87.54
2018-12-01T05:08:03.249Z,87.73
2018-12-01T05:10:33.911Z,87.66
2018-12-01T05:13:03.907Z,87.60
2018-12-01T05:15:35.055Z,87.46
2018-12-01T05:18:05.155Z,87.73
2018-12-01T05:20:35.996Z,87.45
2018-12-01T05:23:06.922Z,87.43
2018-12-01T05:25:37.571Z,87.41
2018-12-01T05:28:09.330Z,87.70
2018-12-01T05:30:40.171Z,87.57
2018-12-01T05:33:10.324Z,87.67
2018-12-01T05:35:41.134Z,87.66
2018-12-01T05:38:11.869Z,87.74
2018-12-01T05:40:43.241Z,87.17
2018-12-01T05:43:13.350Z,87.05
2018-12-01T05:45:44.009Z,87.07
2018-12-01T05:48:15.289Z,86.91
2018-12-01T05:50:45.952Z,86.97
2018-12-01T05:53:17.870Z,87.04
2018-12-01T05:55:48.769Z,86.69
2018-12-01T05:58:20.123Z,86.60
2018-12-01T06:00:51.682Z,86.88
2018-12-01T06:03:22.855Z,86.55
2018-12-01T06:05:52.850Z,86.28
2018-12-01T06:08:23.589Z,86.43
2018-12-01T06:10:55.867Z,86.43
2018-12-01T06:13:26.518Z,86.28
2018-12-01T06:15:58.446Z,86.26
2018-12-01T06:18:30.629Z,86.10
2018-12-01T06:21:01.342Z,85.56
2018-12-01T06:23:33.954Z,85.36
2018-12-01T06:26:04.098Z,85.41
2018-12-01T06:28:35.574Z,84.86
2018-12-01T06:31:06.370Z,84.77
2018-12-01T06:33:37.721Z,85.18
2018-12-01T06:36:07.946Z,85.47
2018-12-01T06:38:39.277Z,85.33
2018-12-01T06:41:10.963Z,85.82
2018-12-01T06:43:40.933Z,85.70
2018-12-01T06:46:11.077Z,85.43
2018-12-01T06:48:42.376Z,86.32
2018-12-01T06:51:13.731Z,86.66
2018-12-01T06:53:46.079Z,86.81
2018-12-01T06:56:18.473Z,86.79
2018-12-01T06:58:48.666Z,87.08
2018-12-01T07:01:20.158Z,86.99
2018-12-01T07:03:50.672Z,86.85
2018-12-01T07:06:20.773Z,87.01
2018-12-01T07:08:52.399Z,87.03
2018-12-01T07:11:23.147Z,86.66
2018-12-01T07:13:55.191Z,86.67
2018-12-01T07:16:26.488Z,86.09
2018-12-01T07:19:22.718Z,86.53
2018-12-01T07:21:53.994Z,86.52
2018-12-01T07:24:24.528Z,86.70
2018-12-01T07:26:56.149Z,86.66
2018-12-01T07:29:26.924Z,86.55
2018-12-01T07:31:57.048Z,86.31
2018-12-01T07:34:27.005Z,86.10
2018-12-01T07:36:58.911Z,85.75
2018-12-01T07:39:30.064Z,84.92
2018-12-01T07:42:00.262Z,84.23
2018-12-01T07:44:33.090Z,84.08
2018-12-01T07:47:04.544Z,83.74
2018-12-01T07:49:35.055Z,83.31
2018-12-01T07:52:05.377Z,83.47
2018-12-01T07:54:35.558Z,83.93
2018-12-01T07:57:06.801Z,83.57
2018-12-01T07:59:38.093Z,83.75
2018-12-01T08:02:08.226Z,84.02
2018-12-01T08:04:39.377Z,83.82
2018-12-01T08:07:10.378Z,83.06
2018-12-01T08:09:41.490Z,83.34
2018-12-01T08:12:12.102Z,83.36
2018-12-01T08:14:42.567Z,83.47
2018-12-01T08:17:13.599Z,83.92
2018-12-01T08:19:44.849Z,83.51
2018-12-01T08:22:15.678Z,83.30
2018-12-01T08:24:46.100Z,83.68
2018-12-01T08:27:17.578Z,83.42
2018-12-01T08:29:48.798Z,82.56
2018-12-01T08:32:19.643Z,82.60
2018-12-01T08:34:50.201Z,82.50
2018-12-01T08:37:20.880Z,82.75
2018-12-01T08:39:51.418Z,82.34
2018-12-01T08:42:23.214Z,82.90
2018-12-01T08:44:53.246Z,82.85
2018-12-01T08:47:23.764Z,82.44
2018-12-01T08:49:54.238Z,82.99
2018-12-01T08:52:25.534Z,82.49
2018-12-01T08:54:56.202Z,82.83
2018-12-01T08:57:27.414Z,82.61
2018-12-01T08:59:57.609Z,81.74
2018-12-01T09:02:27.763Z,82.15
2018-12-01T09:04:58.356Z,82.06
2018-12-01T09:07:30.173Z,82.17
2018-12-01T09:10:01.457Z,82.40
2018-12-01T09:12:31.568Z,81.77
2018-12-01T09:15:02.744Z,81.47
2018-12-01T09:17:34.478Z,80.68
2018-12-01T09:20:04.871Z,80.40
2018-12-01T09:22:34.992Z,80.58
2018-12-01T09:25:05.226Z,80.65
2018-12-01T09:27:35.996Z,80.36
2018-12-01T09:30:13.567Z,81.23
2018-12-01T09:32:45.426Z,81.41
2018-12-01T09:35:16.906Z,81.21
2018-12-01T09:37:48.521Z,80.69
2018-12-01T09:40:21.046Z,79.96
2018-12-01T09:42:52.191Z,78.06
2018-12-01T09:45:24.116Z,77.48
2018-12-01T09:47:55.567Z,76.60
2018-12-01T09:50:27.028Z,76.98
2018-12-01T09:52:58.231Z,76.67
2018-12-01T09:55:31.175Z,76.88
2018-12-01T09:58:01.767Z,76.57
2018-12-01T10:00:34.082Z,76.67
2018-12-01T10:03:07.592Z,76.01
2018-12-01T10:05:38.004Z,76.26
2018-12-01T10:08:08.571Z,76.14
2018-12-01T10:10:38.714Z,75.17
2018-12-01T10:13:08.809Z,74.72
2018-12-01T10:15:39.665Z,75.09
2018-12-01T10:18:10.782Z,75.05
2018-12-01T10:20:42.777Z,75.15
2018-12-01T10:23:14.139Z,75.39
2018-12-01T10:25:44.872Z,75.02
2018-12-01T10:28:15.497Z,74.60
2018-12-01T10:30:46.106Z,74.86
2018-12-01T10:33:16.744Z,73.75
2018-12-01T10:35:46.904Z,74.38
2018-12-01T10:38:18.280Z,73.66
2018-12-01T10:40:48.355Z,73.64
2018-12-01T10:43:18.492Z,73.73
2018-12-01T10:45:48.652Z,73.73
2018-12-01T10:48:18.801Z,72.89
2018-12-01T10:50:49.590Z,73.78
2018-12-01T10:53:20.175Z,74.06
2018-12-01T10:55:51.652Z,73.75
2018-12-01T10:58:22.466Z,74.59
2018-12-01T11:00:58.241Z,74.97
2018-12-01T11:03:35.074Z,75.17
2018-12-01T11:06:09.581Z,74.64
2018-12-01T11:08:39.753Z,75.00
2018-12-01T11:11:10.521Z,75.14
2018-12-01T11:13:41.450Z,74.82
2018-12-01T11:16:14.367Z,75.01
2018-12-01T11:18:44.502Z,75.25
2018-12-01T11:21:15.660Z,74.98
2018-12-01T11:23:46.473Z,74.76
2018-12-01T11:26:16.567Z,73.48
2018-12-01T11:28:47.673Z,73.97
2018-12-01T11:31:18.470Z,73.54
2018-12-01T11:33:51.400Z,72.48
2018-12-01T11:36:22.812Z,71.62
2018-12-01T11:38:54.258Z,72.24
2018-12-01T11:41:25.012Z,71.91
2018-12-01T11:43:56.290Z,71.54
2018-12-01T11:46:27.292Z,71.17
2018-12-01T11:48:58.238Z,71.49
2018-12-01T11:51:28.976Z,71.02
2018-12-01T11:53:59.779Z,71.57
2018-12-01T11:56:30.451Z,70.95
2018-12-01T11:59:02.521Z,69.80
2018-12-01T12:01:33.158Z,70.06
2018-12-01T12:04:05.165Z,70.01
2018-12-01T12:06:36.601Z,68.47
2018-12-01T12:09:09.458Z,69.69
2018-12-01T12:11:40.759Z,69.69
2018-12-01T12:14:12.250Z,70.13
2018-12-01T12:16:42.467Z,69.02
2018-12-01T12:19:12.598Z,68.64
2018-12-01T12:21:43.366Z,69.86
2018-12-01T12:24:14.198Z,68.67
2018-12-01T12:26:44.834Z,68.55
2018-12-01T12:29:16.385Z,68.87
2018-12-01T12:31:46.659Z,68.33
2018-12-01T12:34:16.914Z,68.34
2018-12-01T12:36:48.091Z,67.11
2018-12-01T12:39:19.722Z,66.02
2018-12-01T12:41:51.482Z,65.92
2018-12-01T12:44:22.836Z,64.97
2018-12-01T12:46:53.966Z,65.45
2018-12-01T12:49:25.564Z,65.27
2018-12-01T12:51:57.776Z,65.84
2018-12-01T12:54:28.473Z,65.98
2018-12-01T12:57:00.332Z,65.78
2018-12-01T12:59:31.042Z,65.51
2018-12-01T13:02:01.626Z,64.77
2018-12-01T13:04:32.262Z,65.17
2018-12-01T13:07:03.054Z,65.67
2018-12-01T13:09:33.919Z,65.10
2018-12-01T13:12:04.760Z,64.93
2018-12-01T13:14:34.757Z,65.22
2018-12-01T13:17:07.250Z,64.87
2018-12-01T13:19:37.469Z,65.25
2018-12-01T13:22:08.346Z,65.46
2018-12-01T13:24:40.387Z,65.30
2018-12-01T13:27:10.958Z,65.74
2018-12-01T13:29:41.632Z,65.76
2018-12-01T13:32:12.478Z,65.89
2018-12-01T13:34:43.770Z,65.88
2018-12-01T13:37:14.362Z,65.68
2018-12-01T13:39:45.203Z,65.34
2018-12-01T13:42:15.873Z,65.58
2018-12-01T13:44:46.179Z,65.55
2018-12-01T13:47:16.214Z,64.82
2018-12-01T13:49:47.128Z,65.37
2018-12-01T13:52:17.100Z,65.21
2018-12-01T13:54:47.354Z,65.74
2018-12-01T13:57:17.526Z,67.19
2018-12-01T13:59:50.209Z,68.11
2018-12-01T14:02:21.596Z,68.35
2018-12-01T14:04:53.071Z,68.14
2018-12-01T14:07:23.908Z,69.68
2018-12-01T14:09:54.591Z,70.31
2018-12-01T14:12:25.650Z,70.47
2018-12-01T14:14:56.715Z,70.87
2018-12-01T14:17:26.874Z,70.92
2018-12-01T14:19:57.185Z,70.88
2018-12-01T14:22:27.743Z,71.00
2018-12-01T14:24:57.974Z,71.37
2018-12-01T14:27:28.099Z,71.87
2018-12-01T14:29:59.057Z,71.88
2018-12-01T14:32:29.918Z,72.57
2018-12-01T14:35:00.097Z,72.33
2018-12-01T14:37:31.204Z,72.62
2018-12-01T14:40:02.001Z,72.79
2018-12-01T14:42:34.058Z,73.31
2018-12-01T14:45:06.774Z,72.86
2018-12-01T14:47:36.903Z,72.50
2018-12-01T14:50:10.698Z,72.69
2018-12-01T14:52:41.085Z,73.37
2018-12-01T14:55:16.599Z,72.93
2018-12-01T14:57:47.593Z,73.46
2018-12-01T15:00:24.950Z,73.89
2018-12-01T15:02:56.273Z,74.42
2018-12-01T15:05:27.381Z,75.00
2018-12-01T15:07:57.553Z,75.42
2018-12-01T15:10:29.149Z,74.43
2018-12-01T15:12:59.330Z,75.13
2018-12-01T15:15:30.886Z,75.69
2018-12-01T15:18:01.927Z,76.01
2018-12-01T15:20:32.133Z,76.15
2018-12-01T15:23:02.448Z,76.77
2018-12-01T15:25:33.177Z,75.98
2018-12-01T15:28:04.186Z,76.75
2018-12-01T15:30:34.977Z,76.51
2018-12-01T15:33:13.626Z,76.83
2018-12-01T15:35:45.784Z,76.80
2018-12-01T15:38:16.259Z,77.25
2018-12-01T15:40:52.767Z,77.67
2018-12-01T15:43:23.707Z,77.69
2018-12-01T15:45:53.909Z,78.33
2018-12-01T15:48:24.776Z,78.49
2018-12-01T15:50:56.824Z,78.29
2018-12-01T15:53:27.678Z,78.09
2018-12-01T15:55:58.392Z,78.61
2018-12-01T15:58:28.585Z,78.80
2018-12-01T16:01:01.098Z,78.10
2018-12-01T16:03:31.371Z,78.58
2018-12-01T16:06:02.445Z,78.53
2018-12-01T16:08:33.129Z,77.85
2018-12-01T16:11:03.325Z,78.29
2018-12-01T16:13:35.710Z,78.47
2018-12-01T16:16:10.546Z,77.98
2018-12-01T16:18:41.815Z,78.34
2018-12-01T16:21:12.686Z,78.24
2018-12-01T16:23:43.393Z,78.12
2018-12-01T16:26:14.022Z,77.89
2018-12-01T16:28:44.933Z,78.09
2018-12-01T16:31:16.731Z,77.90
2018-12-01T16:33:46.895Z,78.03
2018-12-01T16:36:17.269Z,78.44
2018-12-01T16:38:48.029Z,78.30
2018-12-01T16:41:30.440Z,78.75
2018-12-01T16:44:01.147Z,79.21
2018-12-01T16:46:31.405Z,79.28
2018-12-01T16:49:02.209Z,79.67
2018-12-01T16:51:33.172Z,80.17
2018-12-01T16:54:03.355Z,80.33
2018-12-01T16:56:33.710Z,80.15
2018-12-01T16:59:05.274Z,80.18
2018-12-01T17:01:35.405Z,80.51
2018-12-01T17:04:05.731Z,80.59
2018-12-01T17:06:36.481Z,81.39
2018-12-01T17:09:09.213Z,81.34
2018-12-01T17:11:39.436Z,81.54
2018-12-01T17:14:10.922Z,81.15
2018-12-01T17:16:41.779Z,81.79
2018-12-01T17:19:12.698Z,82.10
2018-12-01T17:21:43.455Z,82.63
2018-12-01T17:24:13.570Z,83.08
2018-12-01T17:26:44.119Z,82.96
2018-12-01T17:29:15.467Z,82.84
2018-12-01T17:31:46.267Z,82.68
2018-12-01T17:34:19.315Z,82.53
2018-12-01T17:36:50.911Z,81.89
2018-12-01T17:39:21.774Z,81.84
2018-12-01T17:41:52.139Z,81.55
2018-12-01T17:44:22.901Z,81.27
2018-12-01T17:46:53.027Z,80.85
2018-12-01T17:49:23.111Z,80.02
2018-12-01T17:51:53.289Z,79.66
2018-12-01T17:54:23.939Z,80.10
2018-12-01T17:56:53.992Z,79.83
2018-12-01T17:59:24.828Z,79.28
2018-12-01T18:01:56.137Z,79.14
2018-12-01T18:04:26.300Z,78.59
2018-12-01T18:06:57.230Z,78.37
2018-12-01T18:09:28.482Z,78.53
2018-12-01T18:12:00.469Z,78.23
2018-12-01T18:14:33.803Z,77.97
2018-12-01T18:17:04.929Z,77.49
2018-12-01T18:19:35.157Z,78.07
2018-12-01T18:22:06.486Z,77.32
2018-12-01T18:24:37.702Z,76.81
2018-12-01T18:27:08.253Z,76.79
2018-12-01T18:29:38.637Z,77.07
2018-12-01T18:32:08.837Z,76.61
2018-12-01T18:34:39.967Z,76.58
2018-12-01T18:37:11.164Z,76.24
2018-12-01T18:39:42.382Z,76.34
2018-12-01T18:42:12.644Z,76.35
2018-12-01T18:44:43.360Z,76.56
2018-12-01T18:47:14.386Z,76.99
2018-12-01T18:49:44.454Z,76.11
2018-12-01T18:52:14.742Z,76.28
2018-12-01T18:54:45.048Z,75.90
2018-12-01T18:57:15.801Z,76.04
2018-12-01T18:59:46.914Z,75.85
2018-12-01T19:02:19.006Z,75.48
2018-12-01T19:04:49.196Z,75.89
2018-12-01T19:07:20.936Z,76.06
2018-12-01T19:09:51.909Z,76.31
2018-12-01T19:12:23.872Z,76.56
2018-12-01T19:14:54.720Z,76.57
2018-12-01T19:17:26.051Z,76.32
2018-12-01T19:19:57.047Z,76.59
2018-12-01T19:22:27.746Z,76.72
2018-12-01T19:24:58.584Z,76.79
2018-12-01T19:27:30.348Z,76.61
2018-12-01T19:30:05.204Z,76.92
2018-12-01T19:32:33.853Z,77.17
2018-12-01T19:35:04.208Z,77.34
2018-12-01T19:37:35.263Z,77.35
2018-12-01T19:40:09.891Z,77.23
2018-12-01T19:42:40.759Z,77.56
2018-12-01T19:45:11.299Z,77.33
2018-12-01T19:47:42.754Z,77.55
2018-12-01T19:50:30.135Z,77.69
2018-12-01T19:53:00.378Z,77.45
2018-12-01T19:55:35.173Z,77.53
2018-12-01T19:58:13.363Z,77.06
2018-12-01T20:00:45.572Z,77.07
2018-12-01T20:03:19.687Z,76.69
2018-12-01T20:05:49.890Z,76.67
2018-12-01T20:08:21.449Z,76.37
2018-12-01T20:10:54.582Z,76.82
2018-12-01T20:13:37.042Z,76.57
2018-12-01T20:16:18.329Z,76.80
2018-12-01T20:18:48.429Z,76.57
2018-12-01T20:21:18.700Z,76.43
2018-12-01T20:23:49.850Z,76.46
2018-12-01T20:26:20.603Z,76.41
2018-12-01T20:28:51.338Z,76.09
2018-12-01T20:31:22.059Z,76.76
2018-12-01T20:33:54.214Z,76.76
2018-12-01T20:36:33.380Z,76.82
2018-12-01T20:39:17.807Z,76.97
2018-12-01T20:41:48.060Z,76.76
2018-12-01T20:44:18.590Z,77.06
2018-12-01T20:46:49.842Z,76.74
2018-12-01T20:49:21.558Z,76.85
2018-12-01T20:51:52.822Z,77.21
2018-12-01T20:54:37.345Z,76.88
2018-12-01T20:57:17.680Z,76.81
2018-12-01T20:59:48.045Z,76.16
2018-12-01T21:02:19.014Z,76.42
2018-12-01T21:04:49.251Z,76.60
2018-12-01T21:07:19.930Z,76.54
2018-12-01T21:09:50.789Z,76.83
2018-12-01T21:12:22.837Z,77.13
2018-12-01T21:14:54.196Z,76.89
2018-12-01T21:17:24.881Z,76.86
2018-12-01T21:19:56.977Z,77.39
2018-12-01T21:22:26.961Z,77.00
2018-12-01T21:24:57.693Z,76.46
2018-12-01T21:27:28.335Z,76.59
2018-12-01T21:30:00.281Z,76.77
2018-12-01T21:32:30.237Z,76.56
2018-12-01T21:35:01.349Z,76.38
2018-12-01T21:37:31.857Z,76.42
2018-12-01T21:40:01.991Z,76.21
2018-12-01T21:42:33.875Z,76.14
2018-12-01T21:45:04.488Z,76.22
2018-12-01T21:47:35.958Z,75.87
2018-12-01T21:50:08.724Z,76.04
2018-12-01T21:52:40.075Z,75.29
2018-12-01T21:55:11.974Z,75.53
2018-12-01T21:57:43.680Z,75.87
2018-12-01T22:00:17.023Z,75.40
2018-12-01T22:02:49.318Z,76.07
2018-12-01T22:05:21.525Z,75.94
2018-12-01T22:07:52.382Z,76.00
2018-12-01T22:10:23.860Z,75.42
2018-12-01T22:12:54.725Z,75.49
2018-12-01T22:15:25.310Z,75.87
2018-12-01T22:17:55.894Z,75.87
2018-12-01T22:20:27.264Z,76.26
2018-12-01T22:22:57.942Z,76.95
2018-12-01T22:25:28.173Z,76.15
2018-12-01T22:27:59.011Z,75.59
2018-12-01T22:30:29.866Z,75.46
2018-12-01T22:33:01.021Z,75.11
2018-12-01T22:35:32.130Z,75.40
2018-12-01T22:38:03.004Z,74.98
2018-12-01T22:40:34.897Z,74.92
2018-12-01T22:43:11.185Z,74.63
2018-12-01T22:45:42.076Z,75.16
2018-12-01T22:48:17.227Z,75.21
2018-12-01T22:50:49.787Z,75.39
2018-12-01T22:53:19.914Z,75.64
2018-12-01T22:55:50.221Z,76.13
2018-12-01T22:58:22.166Z,76.18
2018-12-01T23:00:57.624Z,76.08
2018-12-01T23:03:30.334Z,76.16
2018-12-01T23:06:01.441Z,76.03
2018-12-01T23:08:31.666Z,76.05
2018-12-01T23:11:01.866Z,75.70
2018-12-01T23:13:32.771Z,74.86
2018-12-01T23:16:04.433Z,75.42
2018-12-01T23:18:35.180Z,75.33
2018-12-01T23:21:06.406Z,74.63
2018-12-01T23:23:37.104Z,75.79
2018-12-01T23:26:07.890Z,75.53
2018-12-01T23:28:38.598Z,75.42
2018-12-01T23:31:08.728Z,75.35
2018-12-01T23:33:38.887Z,76.28
2018-12-01T23:36:09.474Z,75.58
2018-12-01T23:38:40.283Z,76.07
2018-12-01T23:41:10.783Z,76.02
2018-12-01T23:43:42.533Z,76.10
2018-12-01T23:46:12.623Z,75.62
2018-12-01T23:48:43.889Z,76.11
2018-12-01T23:51:14.103Z,75.52
2018-12-01T23:53:44.189Z,74.30
2018-12-01T23:56:14.233Z,74.93
2018-12-01T23:58:44.420Z,74.63
